Time;durP1;ratioP1;P1;durP2;ratioP2;P2;SDS_P1;SDS_P2;PMS_P1;PMS_P2;Temp;Humidity;BMP_temperature;BMP_pressure;BME280_temperature;BME280_humidity;BME280_pressure;Samples;Min_cycle;Max_cycle;Signal;HPM_P1;HPM_P2
2024/03/21 00:00:35;;;;;;;34.73;19.30;;;;;;;4.93;79.09;100976.34;5086391;28;20201;-67
2024/03/21 00:03:02;;;;;;;32.23;18.97;;;;;;;4.94;79.08;100983.22;5072015;28;20204;-64
2024/03/21 00:05:28;;;;;;;36.37;19.90;;;;;;;4.91;79.03;100978.03;5075600;28;20212;-64
2024/03/21 00:07:55;;;;;;;31.47;19.47;;;;;;;4.92;79.02;100979.75;5085297;28;20212;-65
2024/03/21 00:10:22;;;;;;;33.27;20.03;;;;;;;4.93;79.12;100981.47;5078296;28;20204;-65
2024/03/21 00:12:50;;;;;;;32.53;19.33;;;;;;;4.92;78.70;100977.19;5074317;28;20227;-65
2024/03/21 00:15:17;;;;;;;36.00;20.13;;;;;;;4.88;78.89;100967.72;5078600;28;20207;-68
2024/03/21 00:17:47;;;;;;;39.60;20.07;;;;;;;4.84;78.92;100967.63;5079721;28;20257;-64
2024/03/21 00:20:14;;;;;;;34.63;20.57;;;;;;;4.82;78.94;100974.41;5087165;28;20200;-64
2024/03/21 00:22:43;;;;;;;33.57;20.23;;;;;;;4.81;79.39;100976.91;5085886;28;20259;-65
2024/03/21 00:25:10;;;;;;;32.80;20.67;;;;;;;4.81;79.29;100972.66;5083940;28;20207;-64
2024/03/21 00:27:40;;;;;;;36.30;20.93;;;;;;;4.78;79.49;100967.47;5081604;28;20233;-64
2024/03/21 00:30:07;;;;;;;33.20;19.90;;;;;;;4.80;79.35;100964.97;5077856;28;20259;-63
2024/03/21 00:32:35;;;;;;;35.70;20.90;;;;;;;4.79;79.35;100969.22;5079743;28;20209;-63
2024/03/21 00:35:03;;;;;;;31.90;20.80;;;;;;;4.80;79.34;100962.41;5073318;28;20251;-66
2024/03/21 00:37:30;;;;;;;34.43;20.00;;;;;;;4.79;79.46;100966.66;5084500;28;20231;-65
2024/03/21 00:39:56;;;;;;;31.37;18.30;;;;;;;4.80;79.55;100963.28;5074251;28;20216;-67
2024/03/21 00:42:23;;;;;;;33.03;20.30;;;;;;;4.77;79.11;100957.22;5078549;28;20557;-67
2024/03/21 00:44:49;;;;;;;29.63;19.67;;;;;;;4.78;79.77;100954.69;5068432;28;20220;-66
2024/03/21 00:47:16;;;;;;;30.00;19.17;;;;;;;4.77;79.66;100950.44;5078126;28;20209;-67
2024/03/21 00:49:42;;;;;;;33.90;19.47;;;;;;;4.76;79.10;100958.91;5076426;28;20204;-66
2024/03/21 00:52:10;;;;;;;39.27;20.87;;;;;;;4.76;79.99;100963.16;5079695;28;20229;-67
2024/03/21 00:54:36;;;;;;;34.07;20.50;;;;;;;4.75;79.44;100961.41;5077092;28;20574;-67
2024/03/21 00:57:03;;;;;;;34.20;20.40;;;;;;;4.75;79.50;100959.75;5074304;28;20304;-66
2024/03/21 00:59:30;;;;;;;34.13;20.10;;;;;;;4.74;79.77;100954.59;5074996;28;20221;-66
2024/03/21 01:01:57;;;;;;;35.93;21.27;;;;;;;4.73;80.00;100960.53;5070938;28;20220;-65
2024/03/21 01:04:23;;;;;;;33.53;20.30;;;;;;;4.73;80.04;100953.72;5069733;28;20209;-66
2024/03/21 01:06:50;;;;;;;34.57;21.27;;;;;;;4.73;79.71;100950.31;5068384;28;20212;-66
2024/03/21 01:09:18;;;;;;;34.77;20.57;;;;;;;4.73;79.94;100952.88;5070034;28;20213;-66
2024/03/21 01:11:45;;;;;;;34.80;20.53;;;;;;;4.72;80.07;100952.00;5070551;28;20668;-66
2024/03/21 01:14:11;;;;;;;34.30;20.40;;;;;;;4.72;79.98;100946.91;5067335;28;20220;-67
2024/03/21 01:16:38;;;;;;;31.53;20.37;;;;;;;4.72;80.00;100949.44;5070021;28;20233;-66
2024/03/21 01:19:04;;;;;;;36.73;21.43;;;;;;;4.71;79.93;100945.16;5070587;28;20266;-66
2024/03/21 01:21:31;;;;;;;33.70;21.07;;;;;;;4.70;80.11;100943.44;5066020;28;20209;-67
2024/03/21 01:23:58;;;;;;;33.87;20.33;;;;;;;4.70;80.17;100943.44;5068112;28;20613;-69
2024/03/21 01:26:26;;;;;;;31.67;19.70;;;;;;;4.70;80.19;100947.69;5068455;28;20564;-67
2024/03/21 01:28:52;;;;;;;34.33;20.30;;;;;;;4.69;79.88;100936.59;5068166;28;20672;-66
2024/03/21 01:31:21;;;;;;;33.50;20.60;;;;;;;4.68;79.96;100940.00;5069027;28;20560;-66
2024/03/21 01:33:48;;;;;;;34.90;20.53;;;;;;;4.64;79.86;100922.88;5069189;28;20216;-66
2024/03/21 01:36:16;;;;;;;32.57;19.87;;;;;;;4.64;79.68;100920.31;5069855;28;20248;-66
2024/03/21 01:38:43;;;;;;;36.73;20.63;;;;;;;4.61;79.55;100922.78;5062158;28;20213;-69
2024/03/21 01:41:10;;;;;;;32.93;20.00;;;;;;;4.58;79.79;100910.78;5069502;28;20225;-67
2024/03/21 01:43:40;;;;;;;34.53;20.37;;;;;;;4.57;79.54;100926.06;5069014;28;20221;-66
2024/03/21 01:46:25;;;;;;;32.10;20.47;;;;;;;4.53;80.40;100920.03;5066852;28;20289;-66
2024/03/21 01:48:51;;;;;;;32.80;20.03;;;;;;;4.52;80.37;100910.63;5069024;28;20216;-66
2024/03/21 01:51:21;;;;;;;33.90;20.70;;;;;;;4.50;79.82;100919.06;5071070;28;20209;-66
2024/03/21 01:53:50;;;;;;;33.93;20.27;;;;;;;4.45;80.37;100910.41;5069662;28;20205;-66
2024/03/21 01:56:18;;;;;;;35.73;21.70;;;;;;;4.43;80.47;100907.84;5077656;28;20251;-66
2024/03/21 01:58:45;;;;;;;35.47;21.40;;;;;;;4.43;80.37;100910.38;5070642;28;20217;-66
2024/03/21 02:01:25;;;;;;;38.17;21.90;;;;;;;4.41;80.50;100908.59;5075666;28;20726;-67
2024/03/21 02:03:52;;;;;;;34.67;20.73;;;;;;;4.36;80.70;100905.94;5077163;28;20208;-66
2024/03/21 02:06:20;;;;;;;37.97;22.23;;;;;;;4.29;80.59;100899.78;5084249;28;20265;-67
2024/03/21 02:08:46;;;;;;;40.23;22.20;;;;;;;4.22;80.58;100897.91;5073518;28;20212;-67
2024/03/21 02:11:13;;;;;;;39.57;22.97;;;;;;;4.15;80.97;100890.03;5074622;28;20223;-67
2024/03/21 02:13:39;;;;;;;35.77;22.07;;;;;;;4.06;81.08;100895.75;5073448;28;20204;-66
2024/03/21 02:18:50;;;;;;;37.13;21.97;;;;;;;3.95;81.73;100897.13;5275743;23;20224;-60
2024/03/21 02:24:03;;;;;;;40.80;23.23;;;;;;;3.93;82.63;100898.75;4929613;29;20664;-60
2024/03/21 02:26:30;;;;;;;38.13;22.83;;;;;;;3.92;82.57;100892.78;4938226;29;20221;-60
2024/03/21 02:28:56;;;;;;;36.37;21.43;;;;;;;3.92;83.04;100902.13;4935756;28;20715;-58
2024/03/21 02:31:23;;;;;;;39.50;22.37;;;;;;;3.88;82.64;100901.19;4935007;28;20216;-61
2024/03/21 02:33:51;;;;;;;37.50;22.87;;;;;;;3.88;83.30;100903.72;4935410;29;20220;-58
2024/03/21 02:36:17;;;;;;;35.33;20.77;;;;;;;3.92;83.22;100902.13;4935503;29;20233;-59
2024/03/21 02:38:45;;;;;;;37.10;21.87;;;;;;;3.93;83.23;100906.41;4933274;29;20260;-60
2024/03/21 02:41:12;;;;;;;38.73;23.80;;;;;;;3.96;83.59;100909.03;4935031;29;20217;-64
2024/03/21 02:43:40;;;;;;;37.93;21.87;;;;;;;3.95;83.50;100904.78;4936674;29;20269;-64
2024/03/21 02:46:05;;;;;;;34.90;21.87;;;;;;;3.94;83.42;100913.22;4935566;29;20213;-63
2024/03/21 02:48:33;;;;;;;37.83;21.00;;;;;;;3.94;83.61;100915.78;4938162;28;20220;-66
2024/03/21 02:50:59;;;;;;;37.20;21.10;;;;;;;3.93;83.49;100914.06;4934806;29;20224;-64
2024/03/21 02:53:26;;;;;;;39.23;21.73;;;;;;;3.93;83.56;100908.94;4934912;29;20682;-64
2024/03/21 02:55:52;;;;;;;36.70;21.57;;;;;;;3.97;83.88;100911.63;4929167;29;20213;-64
2024/03/21 02:58:20;;;;;;;36.37;22.37;;;;;;;3.97;83.20;100903.13;4931078;29;20967;-63
2024/03/21 03:00:47;;;;;;;36.87;22.67;;;;;;;3.99;83.19;100904.03;4935027;29;20221;-64
2024/03/21 03:03:13;;;;;;;34.37;21.40;;;;;;;3.98;83.60;100900.63;4938779;28;20213;-64
2024/03/21 03:05:40;;;;;;;37.23;22.37;;;;;;;4.01;83.13;100902.38;4934925;29;20252;-64
2024/03/21 03:08:07;;;;;;;38.23;21.67;;;;;;;4.02;83.73;100904.13;4935262;29;20661;-64
2024/03/21 03:10:33;;;;;;;35.37;21.00;;;;;;;4.05;83.44;100901.66;4934700;28;20714;-63
2024/03/21 03:13:00;;;;;;;37.37;22.03;;;;;;;4.06;82.83;100898.31;4933457;29;20214;-60
2024/03/21 03:15:27;;;;;;;33.97;21.10;;;;;;;4.08;82.83;100900.03;4937564;29;20216;-62
2024/03/21 03:17:54;;;;;;;33.33;21.17;;;;;;;4.09;82.73;100904.34;4944987;28;20251;-63
2024/03/21 03:20:20;;;;;;;36.37;21.90;;;;;;;4.08;82.69;100905.16;4936113;29;20212;-62
2024/03/21 03:22:47;;;;;;;36.30;22.60;;;;;;;4.08;82.99;100915.34;4938072;29;20257;-62
2024/03/21 03:25:13;;;;;;;37.87;22.10;;;;;;;4.07;82.56;100910.22;4935710;29;20214;-64
2024/03/21 03:27:40;;;;;;;36.23;20.83;;;;;;;4.07;83.17;100907.66;4951266;28;20631;-64
2024/03/21 03:30:07;;;;;;;38.00;22.60;;;;;;;4.10;82.85;100902.66;4936067;28;20229;-62
2024/03/21 03:32:37;;;;;;;37.97;22.17;;;;;;;4.10;82.92;100907.75;4934974;29;20701;-63
2024/03/21 03:37:48;;;;;;;35.87;21.20;;;;;;;4.09;82.83;100896.69;4936401;29;20252;-60
2024/03/21 03:40:15;;;;;;;36.00;21.67;;;;;;;4.11;82.93;100883.97;4934912;29;20236;-61
2024/03/21 03:42:42;;;;;;;33.73;20.97;;;;;;;4.13;82.79;100887.44;4936211;29;20209;-60
2024/03/21 03:45:09;;;;;;;31.93;20.57;;;;;;;4.16;83.17;100884.09;4934975;29;20209;-60
2024/03/21 03:47:37;;;;;;;33.73;20.53;;;;;;;4.17;82.85;100885.84;4935656;29;20205;-61
2024/03/21 03:50:04;;;;;;;33.93;20.83;;;;;;;4.17;82.40;100889.25;4933555;28;20221;-61
2024/03/21 03:52:30;;;;;;;33.90;20.43;;;;;;;4.15;82.44;100882.38;4932137;29;20225;-60
2024/03/21 03:54:56;;;;;;;34.10;21.00;;;;;;;4.16;82.63;100885.00;4935067;29;20233;-60
2024/03/21 03:57:25;;;;;;;36.70;20.70;;;;;;;4.16;82.39;100882.44;4934172;29;20602;-60
2024/03/21 03:59:51;;;;;;;33.10;21.43;;;;;;;4.16;82.02;100877.34;4936673;29;20206;-60
2024/03/21 04:02:18;;;;;;;34.60;20.73;;;;;;;4.13;82.41;100879.81;4935288;28;20624;-60
2024/03/21 04:04:45;;;;;;;33.83;21.53;;;;;;;4.14;82.37;100883.22;4934745;29;20220;-60
2024/03/21 04:07:12;;;;;;;34.40;21.77;;;;;;;4.15;81.90;100885.78;4935028;28;20228;-61
2024/03/21 04:09:38;;;;;;;35.97;21.93;;;;;;;4.13;82.07;100887.44;4932082;29;20213;-60
2024/03/21 04:12:06;;;;;;;36.87;20.73;;;;;;;4.14;82.09;100898.50;4934902;29;20214;-62
2024/03/21 04:14:32;;;;;;;35.10;21.60;;;;;;;4.14;82.29;100894.28;4935523;28;20213;-62
2024/03/21 04:16:59;;;;;;;37.20;21.67;;;;;;;4.14;82.31;100893.41;4937427;29;20312;-59
2024/03/21 04:19:25;;;;;;;32.43;21.23;;;;;;;4.15;82.28;100897.69;4938378;29;20297;-59
2024/03/21 04:21:53;;;;;;;36.77;21.70;;;;;;;4.15;81.99;100900.22;4937995;29;20209;-58
2024/03/21 04:24:19;;;;;;;31.80;20.60;;;;;;;4.17;82.02;100898.59;4937716;29;20221;-61
2024/03/21 04:26:46;;;;;;;36.13;21.43;;;;;;;4.14;81.83;100894.28;4940587;29;20751;-59
2024/03/21 04:29:12;;;;;;;33.77;20.87;;;;;;;4.14;81.82;100896.81;4936769;29;20209;-59
2024/03/21 04:31:39;;;;;;;33.27;22.10;;;;;;;4.17;81.94;100901.16;4937189;29;20328;-58
2024/03/21 04:34:05;;;;;;;35.10;22.03;;;;;;;4.18;82.08;100903.72;4937077;29;20220;-58
2024/03/21 04:36:32;;;;;;;35.47;20.40;;;;;;;4.19;81.91;100897.81;4937774;29;20221;-60
2024/03/21 04:39:01;;;;;;;31.03;19.90;;;;;;;4.22;81.72;100899.59;4936703;29;20228;-58
2024/03/21 04:41:27;;;;;;;35.77;21.57;;;;;;;4.21;81.94;100896.19;4933658;29;20224;-59
2024/03/21 04:43:57;;;;;;;32.73;20.27;;;;;;;4.26;81.59;100911.59;4937763;28;20676;-61
2024/03/21 04:46:28;;;;;;;33.97;20.87;;;;;;;4.27;81.55;100909.13;4929496;29;20221;-63
2024/03/21 04:48:55;;;;;;;32.70;20.17;;;;;;;4.28;81.86;100910.81;4936657;29;20260;-62
2024/03/21 04:51:21;;;;;;;32.73;19.90;;;;;;;4.30;81.48;100921.06;4936470;29;20209;-66
2024/03/21 04:53:48;;;;;;;31.53;19.73;;;;;;;4.35;81.76;100916.97;4936241;29;20283;-63
2024/03/21 04:56:15;;;;;;;36.97;21.03;;;;;;;4.35;81.46;100917.84;4936952;28;20209;-63
2024/03/21 04:58:42;;;;;;;31.03;19.40;;;;;;;4.34;81.14;100908.47;4934415;28;20229;-63
2024/03/21 05:01:08;;;;;;;32.90;19.83;;;;;;;4.34;81.04;100912.66;4937493;29;20216;-63
2024/03/21 05:03:36;;;;;;;36.00;20.77;;;;;;;4.35;81.13;100911.88;4934981;29;20210;-62
2024/03/21 05:06:03;;;;;;;33.73;20.33;;;;;;;4.38;81.05;100918.72;4936437;28;20209;-63
2024/03/21 05:08:29;;;;;;;36.47;20.67;;;;;;;4.39;81.25;100907.72;4933536;29;20578;-61
2024/03/21 05:10:55;;;;;;;33.60;19.37;;;;;;;4.39;80.79;100916.22;4938357;29;20288;-60
2024/03/21 05:13:24;;;;;;;31.93;19.83;;;;;;;4.39;81.17;100911.13;4934546;29;20209;-63
2024/03/21 05:15:50;;;;;;;32.93;19.53;;;;;;;4.38;80.97;100905.97;4933985;29;20221;-59
2024/03/21 05:18:17;;;;;;;34.00;20.33;;;;;;;4.41;80.89;100908.59;4937215;28;20237;-62
2024/03/21 05:20:43;;;;;;;29.40;19.13;;;;;;;4.43;81.02;100909.53;4937218;29;20213;-61
2024/03/21 05:23:10;;;;;;;30.37;19.80;;;;;;;4.45;81.12;100906.16;4932621;29;20209;-60
2024/03/21 05:25:36;;;;;;;31.63;18.93;;;;;;;4.50;80.89;100908.88;4937555;28;20212;-62
2024/03/21 05:28:03;;;;;;;32.33;18.90;;;;;;;4.56;80.76;100909.88;4939314;29;20651;-62
2024/03/21 05:30:31;;;;;;;29.60;19.43;;;;;;;4.60;80.69;100911.72;4929370;29;20214;-63
2024/03/21 05:32:57;;;;;;;31.43;19.90;;;;;;;4.66;80.86;100900.78;4928160;28;20264;-60
2024/03/21 05:35:23;;;;;;;32.80;19.40;;;;;;;4.72;80.44;100916.28;4928374;29;20217;-61
2024/03/21 05:37:51;;;;;;;30.90;18.47;;;;;;;4.78;80.01;100906.19;4927855;29;20241;-61
2024/03/21 05:40:17;;;;;;;29.73;18.63;;;;;;;4.84;80.02;100911.47;4934903;29;20201;-62
2024/03/21 05:42:44;;;;;;;29.27;18.10;;;;;;;4.91;79.50;100909.94;4935836;29;20213;-61
2024/03/21 05:45:10;;;;;;;30.70;19.40;;;;;;;5.01;79.14;100908.50;4934271;28;20243;-60
2024/03/21 05:47:38;;;;;;;28.73;18.87;;;;;;;5.11;79.12;100915.53;4932761;29;20213;-62
2024/03/21 05:50:06;;;;;;;35.67;18.20;;;;;;;5.21;78.67;100904.72;4936259;29;20310;-62
2024/03/21 05:52:33;;;;;;;27.77;18.30;;;;;;;5.30;77.96;100902.41;4936612;29;20221;-62
2024/03/21 05:55:01;;;;;;;31.17;18.47;;;;;;;5.37;77.48;100897.41;4933239;29;20213;-60
2024/03/21 05:57:31;;;;;;;27.07;17.63;;;;;;;5.55;76.97;100900.38;4934756;29;20230;-60
2024/03/21 06:00:00;;;;;;;27.33;17.73;;;;;;;5.70;76.23;100903.28;4937007;29;20212;-62
2024/03/21 06:02:27;;;;;;;28.27;18.03;;;;;;;5.79;75.99;100903.50;4935634;28;20209;-62
2024/03/21 06:04:54;;;;;;;31.30;18.80;;;;;;;5.92;76.18;100899.53;4937986;28;20232;-62
2024/03/21 06:07:24;;;;;;;33.50;19.33;;;;;;;6.09;75.70;100902.44;4922919;29;20217;-65
2024/03/21 06:09:50;;;;;;;25.80;17.43;;;;;;;6.18;74.93;100901.75;4935798;29;20217;-61
2024/03/21 06:12:17;;;;;;;31.47;17.77;;;;;;;6.25;74.53;100908.72;4934405;29;20217;-62
2024/03/21 06:14:43;;;;;;;26.87;16.63;;;;;;;6.34;73.54;100902.94;4943013;29;20209;-61
2024/03/21 06:17:10;;;;;;;29.63;16.00;;;;;;;6.44;74.11;100909.94;4932432;29;20589;-64
2024/03/21 06:19:36;;;;;;;25.17;15.67;;;;;;;6.54;73.30;100906.72;4928938;28;20760;-61
2024/03/21 06:22:05;;;;;;;21.53;14.93;;;;;;;6.66;73.01;100912.06;4934005;29;20676;-63
2024/03/21 06:24:31;;;;;;;19.87;14.07;;;;;;;6.76;72.14;100913.09;4936508;28;20213;-62
2024/03/21 06:26:59;;;;;;;25.10;15.30;;;;;;;6.90;72.54;100903.09;4936312;29;20564;-63
2024/03/21 06:29:28;;;;;;;24.40;14.93;;;;;;;7.01;70.39;100909.28;4937364;28;20216;-64
2024/03/21 06:31:58;;;;;;;28.27;15.77;;;;;;;7.09;70.79;100911.97;4936569;29;20567;-59
2024/03/21 06:34:24;;;;;;;23.13;14.63;;;;;;;7.10;70.01;100911.97;4939223;28;20555;-59
2024/03/21 06:36:51;;;;;;;19.23;13.07;;;;;;;7.14;68.97;100915.44;4936167;29;20248;-58
2024/03/21 06:39:19;;;;;;;20.67;13.60;;;;;;;7.14;67.80;100923.13;4930609;29;20238;-60
2024/03/21 06:41:46;;;;;;;20.23;13.67;;;;;;;7.14;68.77;100921.47;4923002;28;20804;-60
2024/03/21 06:44:12;;;;;;;19.07;13.50;;;;;;;7.18;68.65;100928.38;4925321;29;20228;-61
2024/03/21 06:46:40;;;;;;;18.57;12.93;;;;;;;7.35;68.89;100923.50;4935113;29;20209;-59
2024/03/21 06:49:07;;;;;;;21.13;13.50;;;;;;;7.68;68.54;100925.69;4930548;29;20233;-61
2024/03/21 06:51:34;;;;;;;20.93;12.20;;;;;;;8.07;67.50;100908.28;4930112;29;20224;-63
2024/03/21 06:54:00;;;;;;;20.70;13.50;;;;;;;8.55;66.44;100909.72;4931753;29;20228;-60
2024/03/21 06:56:28;;;;;;;18.40;14.10;;;;;;;8.96;63.96;100902.41;4934063;29;20214;-59
2024/03/21 06:58:54;;;;;;;19.83;13.07;;;;;;;9.44;64.12;100889.03;4936301;29;20598;-60
2024/03/21 07:01:21;;;;;;;16.90;12.13;;;;;;;10.05;61.74;100895.38;4937787;29;20408;-60
2024/03/21 07:03:47;;;;;;;18.30;12.43;;;;;;;10.67;60.36;100893.88;4939318;29;20274;-59
2024/03/21 07:06:14;;;;;;;17.40;12.47;;;;;;;11.20;55.02;100890.47;4936538;29;20213;-59
2024/03/21 07:08:40;;;;;;;18.57;12.80;;;;;;;11.58;55.21;100903.31;4940985;29;20288;-60
2024/03/21 07:11:08;;;;;;;19.30;13.90;;;;;;;12.00;53.10;100898.94;4938194;29;20209;-58
2024/03/21 07:13:35;;;;;;;14.97;11.37;;;;;;;12.71;53.18;100891.69;4931682;29;20221;-60
2024/03/21 07:16:02;;;;;;;17.93;11.53;;;;;;;13.40;50.83;100893.72;4937953;28;20217;-59
2024/03/21 07:18:28;;;;;;;14.87;11.13;;;;;;;13.91;48.24;100887.13;4938577;29;20261;-63
2024/03/21 07:20:55;;;;;;;18.83;12.13;;;;;;;14.32;47.05;100887.50;4938108;29;20333;-60
2024/03/21 07:23:21;;;;;;;18.80;12.00;;;;;;;14.67;46.03;100889.63;4938204;29;20232;-61
2024/03/21 07:25:48;;;;;;;16.98;11.75;;;;;;;15.18;44.12;100892.28;4930266;28;20251;-62
2024/03/21 07:28:14;;;;;;;17.02;11.68;;;;;;;15.52;43.10;100891.69;4937661;28;20205;-60
2024/03/21 07:30:43;;;;;;;17.63;12.13;;;;;;;15.79;40.40;100888.59;4939988;29;20287;-58
2024/03/21 07:33:09;;;;;;;18.85;12.32;;;;;;;16.16;41.31;100882.63;4938062;28;20217;-60
2024/03/21 07:35:36;;;;;;;18.15;12.23;;;;;;;16.69;39.84;100879.75;4937879;29;20224;-59
2024/03/21 07:38:02;;;;;;;15.50;11.80;;;;;;;17.37;38.53;100880.66;4939030;28;20821;-60
2024/03/21 07:40:29;;;;;;;17.40;12.15;;;;;;;18.03;37.39;100875.41;4938271;29;20244;-60
2024/03/21 07:42:55;;;;;;;17.15;11.88;;;;;;;18.64;35.96;100880.53;4942636;28;20213;-59
2024/03/21 07:45:22;;;;;;;16.35;12.07;;;;;;;19.41;35.15;100868.44;4931685;29;20252;-58
2024/03/21 07:47:50;;;;;;;14.80;11.50;;;;;;;20.13;33.53;100865.81;4923668;28;20213;-60
2024/03/21 07:50:17;;;;;;;15.88;12.18;;;;;;;20.83;32.28;100867.47;4913808;28;20583;-63
2024/03/21 07:52:43;;;;;;;14.38;11.27;;;;;;;21.18;30.95;100869.47;4923396;28;20217;-59
2024/03/21 07:55:10;;;;;;;18.85;10.98;;;;;;;21.75;29.86;100872.25;4932453;29;20280;-60
2024/03/21 07:57:36;;;;;;;14.35;10.82;;;;;;;21.98;28.18;100865.97;4927573;29;20236;-60
2024/03/21 08:00:08;;;;;;;17.88;12.02;;;;;;;22.22;27.96;100853.53;4933164;28;20221;-60
2024/03/21 08:02:34;;;;;;;16.40;11.52;;;;;;;22.22;27.72;100857.94;4934504;28;20675;-61
2024/03/21 08:05:02;;;;;;;13.80;10.50;;;;;;;22.33;27.94;100851.25;4935757;29;20224;-61
2024/03/21 08:07:28;;;;;;;14.07;10.90;;;;;;;22.12;27.77;100850.44;4936399;29;20264;-62
2024/03/21 08:09:55;;;;;;;12.95;10.75;;;;;;;22.00;27.62;100847.56;4946515;29;20221;-59
2024/03/21 08:12:21;;;;;;;13.93;10.65;;;;;;;21.30;27.74;100852.38;4936482;29;20240;-63
2024/03/21 08:14:48;;;;;;;18.75;11.10;;;;;;;20.37;29.21;100848.34;4931159;29;20216;-63
2024/03/21 08:17:14;;;;;;;12.38;10.60;;;;;;;19.79;31.04;100843.56;4932172;28;20886;-62
2024/03/21 08:19:45;;;;;;;15.23;10.70;;;;;;;19.95;31.27;100856.91;4928873;29;20237;-63
2024/03/21 08:22:12;;;;;;;13.40;9.65;;;;;;;19.64;30.43;100842.34;4933807;29;20308;-62
2024/03/21 08:24:39;;;;;;;13.30;9.82;;;;;;;19.13;31.45;100845.84;4936220;29;20201;-63
2024/03/21 08:27:05;;;;;;;13.00;9.77;;;;;;;18.38;32.19;100850.91;4931950;29;20255;-62
2024/03/21 08:29:32;;;;;;;13.23;9.32;;;;;;;17.86;33.13;100852.44;4934288;28;20818;-61
2024/03/21 08:31:58;;;;;;;18.27;9.85;;;;;;;17.15;33.54;100856.06;4926484;29;20217;-62
2024/03/21 08:34:25;;;;;;;13.10;10.50;;;;;;;16.47;35.30;100853.38;4934666;29;20213;-63
2024/03/21 08:36:51;;;;;;;12.45;9.20;;;;;;;16.01;36.78;100856.97;4928602;28;20228;-62
2024/03/21 08:39:19;;;;;;;17.27;10.73;;;;;;;15.88;37.54;100853.78;4926750;29;20241;-62
2024/03/21 08:41:45;;;;;;;14.90;10.38;;;;;;;15.70;37.65;100853.25;4898613;28;21912;-62
2024/03/21 08:44:12;;;;;;;17.85;10.38;;;;;;;15.68;37.59;100847.25;4938484;29;20253;-62
2024/03/21 08:46:38;;;;;;;16.40;9.90;;;;;;;15.63;38.23;100842.97;4933374;28;20695;-62
2024/03/21 08:49:05;;;;;;;14.68;10.35;;;;;;;15.55;38.08;100839.69;4933436;28;20310;-63
2024/03/21 08:51:31;;;;;;;14.97;10.30;;;;;;;15.29;37.96;100838.44;4933452;28;20224;-63
2024/03/21 08:54:07;;;;;;;12.07;9.20;;;;;;;14.96;39.05;100837.28;4933768;29;20229;-62
2024/03/21 08:56:34;;;;;;;14.50;9.40;;;;;;;14.61;39.25;100840.44;4929877;29;20209;-63
2024/03/21 08:59:03;;;;;;;13.77;9.37;;;;;;;14.42;40.77;100843.28;4933456;29;20237;-64
2024/03/21 09:01:29;;;;;;;16.97;9.47;;;;;;;14.36;40.30;100832.13;4932287;28;20225;-62
2024/03/21 09:03:56;;;;;;;17.77;10.40;;;;;;;14.53;41.07;100850.94;4929905;28;20209;-62
2024/03/21 09:06:23;;;;;;;16.47;10.20;;;;;;;14.69;40.14;100846.34;4930656;29;20600;-63
2024/03/21 09:08:50;;;;;;;13.37;9.27;;;;;;;14.67;39.47;100854.16;4927136;29;20239;-61
2024/03/21 09:11:17;;;;;;;15.67;10.60;;;;;;;14.67;40.14;100858.50;4932108;29;20730;-65
2024/03/21 09:13:45;;;;;;;15.87;11.13;;;;;;;14.66;39.91;100846.44;4933255;28;20691;-63
2024/03/21 09:16:11;;;;;;;15.73;11.00;;;;;;;14.55;40.24;100858.69;4931928;29;20643;-62
2024/03/21 09:18:41;;;;;;;16.77;10.60;;;;;;;14.30;40.61;100852.97;4931837;29;20233;-62
2024/03/21 09:21:07;;;;;;;18.50;10.70;;;;;;;14.02;40.55;100848.13;4932456;29;20209;-62
2024/03/21 09:23:34;;;;;;;12.53;10.07;;;;;;;13.87;41.94;100848.34;4932962;28;20224;-62
2024/03/21 09:26:02;;;;;;;14.47;9.70;;;;;;;13.74;41.86;100858.00;4939916;29;20755;-60
2024/03/21 09:28:28;;;;;;;16.57;10.73;;;;;;;13.69;41.23;100858.03;4932818;29;20213;-61
2024/03/21 09:30:56;;;;;;;11.60;9.63;;;;;;;13.80;42.10;100852.72;4930972;29;20220;-62
2024/03/21 09:33:23;;;;;;;15.80;9.83;;;;;;;13.86;42.51;100855.25;4934462;29;20559;-62
2024/03/21 09:35:55;;;;;;;14.03;9.37;;;;;;;13.86;41.51;100852.66;4931515;29;20213;-59
2024/03/21 09:38:22;;;;;;;11.87;8.90;;;;;;;13.93;42.07;100849.13;4931956;29;20226;-60
2024/03/21 09:40:48;;;;;;;17.00;9.40;;;;;;;14.04;41.57;100849.00;4935840;29;20216;-59
2024/03/21 09:43:16;;;;;;;16.23;9.83;;;;;;;14.11;41.81;100842.84;4932060;29;20205;-58
2024/03/21 09:45:44;;;;;;;13.57;8.27;;;;;;;14.23;41.68;100841.81;4936516;29;20213;-59
2024/03/21 09:48:13;;;;;;;13.13;9.07;;;;;;;14.32;41.30;100841.69;4935722;29;20209;-59
2024/03/21 09:50:41;;;;;;;13.03;9.33;;;;;;;14.29;40.44;100830.53;4929095;29;20596;-57
2024/03/21 09:53:12;;;;;;;14.47;9.10;;;;;;;14.16;41.08;100835.00;4937088;29;20209;-62
2024/03/21 09:55:40;;;;;;;9.97;8.30;;;;;;;14.01;40.42;100831.75;4933622;29;20217;-60
2024/03/21 09:58:12;;;;;;;15.40;9.10;;;;;;;13.85;41.29;100822.47;4929596;29;20603;-58
2024/03/21 10:00:38;;;;;;;12.30;9.00;;;;;;;13.80;41.29;100821.66;4930614;29;20692;-62
2024/03/21 10:03:13;;;;;;;12.60;9.40;;;;;;;13.74;40.95;100822.59;4932694;29;20580;-60
2024/03/21 10:05:40;;;;;;;16.67;9.67;;;;;;;13.82;41.98;100819.91;4935009;29;20212;-59
2024/03/21 10:08:07;;;;;;;12.03;9.03;;;;;;;13.91;42.22;100822.38;4922622;29;20216;-58
2024/03/21 10:10:33;;;;;;;13.03;9.40;;;;;;;14.06;41.60;100818.72;4935242;29;20217;-59
2024/03/21 10:13:01;;;;;;;12.00;9.50;;;;;;;14.12;41.76;100807.44;4935324;29;20209;-61
2024/03/21 10:15:27;;;;;;;12.83;8.80;;;;;;;14.23;41.38;100819.34;4934766;29;20209;-60
2024/03/21 10:17:54;;;;;;;14.50;9.97;;;;;;;14.14;40.30;100813.41;4929481;29;20249;-60
2024/03/21 10:20:20;;;;;;;12.27;9.17;;;;;;;13.81;41.03;100813.03;4935339;29;20676;-61
2024/03/21 10:22:48;;;;;;;12.40;9.93;;;;;;;13.54;41.56;100809.84;4951246;28;20219;-61
2024/03/21 10:25:16;;;;;;;13.17;9.53;;;;;;;13.40;42.45;100803.13;4945429;29;20968;-59
2024/03/21 10:27:46;;;;;;;14.13;9.87;;;;;;;13.45;42.75;100798.78;4934681;29;20592;-60
2024/03/21 10:30:17;;;;;;;13.87;9.07;;;;;;;13.40;43.27;100791.06;4939428;29;20220;-60
2024/03/21 10:32:45;;;;;;;15.03;9.97;;;;;;;13.47;43.54;100792.69;4939612;29;20232;-59
2024/03/21 10:35:14;;;;;;;14.83;9.70;;;;;;;13.62;44.05;100798.56;4939028;29;20228;-61
2024/03/21 10:37:42;;;;;;;11.77;9.33;;;;;;;13.77;43.41;100794.06;4936938;28;20229;-59
2024/03/21 10:40:11;;;;;;;15.43;9.43;;;;;;;13.89;42.99;100782.69;4936590;29;20236;-59
2024/03/21 10:42:43;;;;;;;16.90;10.00;;;;;;;14.04;42.76;100785.94;4943695;28;20253;-58
2024/03/21 10:45:13;;;;;;;13.77;10.10;;;;;;;14.05;42.82;100778.13;4936804;29;20209;-59
2024/03/21 10:47:47;;;;;;;13.53;9.63;;;;;;;14.13;42.65;100783.22;4938746;29;20665;-59
2024/03/21 10:50:20;;;;;;;13.47;9.90;;;;;;;14.04;43.12;100783.34;4938468;29;21462;-59
2024/03/21 10:52:49;;;;;;;14.73;10.27;;;;;;;13.99;42.29;100771.31;4933908;29;20209;-59
2024/03/21 10:55:18;;;;;;;13.43;8.97;;;;;;;14.00;43.11;100777.34;4935404;28;20213;-60
2024/03/21 10:57:54;;;;;;;15.80;9.23;;;;;;;13.89;42.24;100767.13;4933167;29;20206;-62
2024/03/21 11:00:23;;;;;;;14.97;9.37;;;;;;;13.91;43.37;100767.97;4933879;28;20594;-58
2024/03/21 11:02:52;;;;;;;18.57;10.07;;;;;;;13.99;42.76;100771.31;4931188;29;20213;-57
2024/03/21 11:05:22;;;;;;;14.07;10.20;;;;;;;14.08;42.10;100766.88;4936917;29;20205;-55
2024/03/21 11:07:49;;;;;;;11.83;9.53;;;;;;;14.08;42.96;100770.31;4936998;29;20619;-57
2024/03/21 11:10:18;;;;;;;14.87;9.77;;;;;;;14.09;41.97;100773.78;4933595;28;20249;-57
2024/03/21 11:12:45;;;;;;;13.03;9.10;;;;;;;14.07;41.65;100758.25;4938529;29;20224;-57
2024/03/21 11:15:11;;;;;;;11.77;9.40;;;;;;;14.16;41.86;100752.94;4931531;29;20228;-59
2024/03/21 11:17:39;;;;;;;15.30;10.23;;;;;;;14.21;41.61;100758.03;4934661;29;20245;-57
2024/03/21 11:20:07;;;;;;;15.33;9.57;;;;;;;14.17;42.11;100756.38;4938116;28;20229;-59
2024/03/21 11:22:34;;;;;;;12.17;9.37;;;;;;;14.10;41.31;100757.34;4937628;29;20217;-56
2024/03/21 11:25:01;;;;;;;14.20;9.80;;;;;;;13.90;41.06;100758.47;4942319;28;20639;-65